Time;durP1;ratioP1;P1;durP2;ratioP2;P2;SDS_P1;SDS_P2;PMS_P1;PMS_P2;Temp;Humidity;BMP_temperature;BMP_pressure;BME280_temperature;BME280_humidity;BME280_pressure;Samples;Min_cycle;Max_cycle;Signal;HPM_P1;HPM_P2
2022/01/09 00:01:38;;;;;;;6.15;2.97;;;;;;;4.14;82.27;97278.16;5040322;28;20039;-56
2022/01/09 00:04:11;;;;;;;4.05;2.75;;;;;;;4.14;81.52;97282.44;5074371;28;20045;-55
2022/01/09 00:06:37;;;;;;;5.43;2.78;;;;;;;4.14;82.22;97293.53;5074088;28;20483;-55
2022/01/09 00:09:11;;;;;;;6.78;3.17;;;;;;;4.13;82.54;97298.66;5074549;28;20076;-55
2022/01/09 00:11:39;;;;;;;5.75;3.13;;;;;;;4.13;81.88;97303.78;5056588;28;20133;-55
2022/01/09 00:14:12;;;;;;;5.47;2.97;;;;;;;4.12;82.08;97315.78;5073964;28;20036;-55
2022/01/09 00:16:40;;;;;;;6.35;3.13;;;;;;;4.11;82.58;97316.63;5039933;28;20158;-55
2022/01/09 00:19:09;;;;;;;3.40;2.72;;;;;;;4.13;82.48;97326.88;5074342;28;20041;-55
2022/01/09 00:21:43;;;;;;;7.47;3.90;;;;;;;4.13;81.99;97340.53;5073635;28;20044;-55
2022/01/09 00:24:09;;;;;;;3.92;2.67;;;;;;;4.10;81.99;97343.13;5056171;28;20403;-55
2022/01/09 00:26:37;;;;;;;5.43;3.42;;;;;;;4.10;81.87;97348.25;5074033;28;20492;-55
2022/01/09 00:29:05;;;;;;;9.23;3.70;;;;;;;4.10;82.08;97348.25;5055923;28;20046;-55
2022/01/09 00:31:40;;;;;;;8.48;3.20;;;;;;;4.10;81.92;97379.00;5056271;28;20131;-55
2022/01/09 00:34:06;;;;;;;4.57;3.58;;;;;;;4.11;82.71;97375.59;5055937;28;20040;-55
2022/01/09 00:36:34;;;;;;;7.88;3.45;;;;;;;4.10;82.27;97379.84;5056050;28;20436;-55
2022/01/09 00:38:59;;;;;;;8.95;3.47;;;;;;;4.10;82.40;97384.13;5074112;28;20067;-55
2022/01/09 00:41:25;;;;;;;7.43;3.60;;;;;;;4.10;82.46;97391.81;5039665;28;20064;-55
2022/01/09 00:44:02;;;;;;;7.60;3.50;;;;;;;4.07;82.55;97392.66;5073952;28;20123;-55
2022/01/09 00:46:29;;;;;;;;;;;;;;;4.06;82.60;97408.88;5074106;28;20479;-55
2022/01/09 00:49:06;;;;;;;19.23;5.85;;;;;;;4.06;82.24;97405.50;5074025;28;19924;-55
2022/01/09 00:51:34;;;;;;;20.67;4.97;;;;;;;4.05;81.85;97425.13;5055911;28;20036;-55
2022/01/09 00:54:02;;;;;;;15.60;4.30;;;;;;;4.04;82.06;97428.56;5073598;28;20060;-55
2022/01/09 00:56:30;;;;;;;18.20;5.95;;;;;;;4.04;82.13;97448.19;5073831;28;20503;-55
2022/01/09 00:58:59;;;;;;;17.40;4.63;;;;;;;4.04;82.11;97454.19;5038847;28;20513;-55
2022/01/09 01:01:24;;;;;;;25.35;5.72;;;;;;;4.02;82.51;97460.16;5055188;28;20037;-55
2022/01/09 01:03:55;;;;;;;17.92;4.97;;;;;;;4.01;82.55;97466.13;5055404;28;20053;-55
2022/01/09 01:06:26;;;;;;;24.80;5.43;;;;;;;4.01;82.34;97484.06;5073110;28;20131;-55
2022/01/09 01:08:58;;;;;;;13.10;5.15;;;;;;;4.00;82.35;97490.94;5056131;28;20387;-55
2022/01/09 01:11:26;;;;;;;19.58;5.60;;;;;;;4.01;82.44;97495.19;5055683;28;20036;-55
2022/01/09 01:13:55;;;;;;;14.60;5.38;;;;;;;4.02;81.96;97498.59;5038895;28;20094;-54
2022/01/09 01:16:29;;;;;;;16.38;5.43;;;;;;;4.01;82.47;97502.00;5038821;28;20117;-55
2022/01/09 01:18:57;;;;;;;17.60;5.03;;;;;;;3.99;82.63;97525.09;5056056;28;20082;-55
2022/01/09 01:21:25;;;;;;;15.85;6.38;;;;;;;3.97;82.74;97525.06;5073543;28;20135;-55
2022/01/09 01:23:54;;;;;;;16.30;5.35;;;;;;;3.96;81.96;97538.78;5055047;28;20033;-55
2022/01/09 01:26:25;;;;;;;14.82;5.03;;;;;;;3.97;82.50;97549.88;5073129;28;20101;-55
2022/01/09 01:28:58;;;;;;;20.17;5.47;;;;;;;3.96;82.29;97554.16;5073732;28;20040;-55
2022/01/09 01:31:32;;;;;;;15.20;4.85;;;;;;;3.97;82.69;97572.94;5039081;28;20415;-55
2022/01/09 01:34:00;;;;;;;23.10;5.00;;;;;;;3.96;82.34;97574.66;5055440;28;20039;-55
2022/01/09 01:36:33;;;;;;;16.25;5.63;;;;;;;3.95;82.95;97588.31;5073208;28;20036;-55
2022/01/09 01:39:02;;;;;;;14.45;5.68;;;;;;;3.96;82.60;97597.72;5038670;28;20072;-55
2022/01/09 01:41:34;;;;;;;15.45;5.07;;;;;;;3.94;82.75;97599.41;5038505;28;20028;-55
2022/01/09 01:44:09;;;;;;;18.50;5.40;;;;;;;3.95;82.53;97613.06;5073173;28;20064;-54
2022/01/09 01:46:38;;;;;;;21.38;5.35;;;;;;;3.95;82.77;97629.31;5038522;28;20128;-55
2022/01/09 01:49:10;;;;;;;15.93;4.30;;;;;;;3.93;82.67;97628.47;5057935;28;20039;-56
2022/01/09 01:51:45;;;;;;;17.52;4.97;;;;;;;3.95;82.13;97624.19;5077121;28;20044;-55
2022/01/09 01:54:14;;;;;;;23.52;5.60;;;;;;;3.95;82.66;97636.13;5059658;28;20046;-54
2022/01/09 01:56:45;;;;;;;22.55;4.97;;;;;;;3.94;82.72;97635.28;5042327;28;20033;-55
2022/01/09 01:59:16;;;;;;;16.80;4.95;;;;;;;3.94;82.62;97637.84;5042478;28;20047;-55
2022/01/09 02:01:48;;;;;;;22.27;6.35;;;;;;;3.96;82.81;97641.28;5058754;28;20089;-55
2022/01/09 02:04:16;;;;;;;17.92;5.78;;;;;;;3.96;82.59;97648.97;5076979;28;20053;-55
2022/01/09 02:06:45;;;;;;;22.77;5.05;;;;;;;3.99;82.34;97647.25;5077013;28;20029;-55
2022/01/09 02:09:19;;;;;;;20.05;5.25;;;;;;;4.00;82.54;97664.34;5042112;28;20036;-55
2022/01/09 02:11:51;;;;;;;18.17;5.72;;;;;;;3.99;82.40;97666.06;5059090;28;20029;-55
2022/01/09 02:14:22;;;;;;;23.95;5.47;;;;;;;4.00;82.40;97661.78;5042229;28;20449;-56
2022/01/09 02:16:54;;;;;;;17.40;5.45;;;;;;;3.99;82.76;97675.44;5058921;28;20075;-55
2022/01/09 02:19:28;;;;;;;13.73;5.93;;;;;;;4.00;82.58;97679.72;5076655;28;20118;-55
2022/01/09 02:21:58;;;;;;;;;;;;;;;3.99;82.22;97686.56;5077059;28;20044;-54
2022/01/09 02:24:30;;;;;;;28.83;6.85;;;;;;;3.98;82.55;97695.09;5058214;28;19965;-55
2022/01/09 02:26:58;;;;;;;27.63;6.60;;;;;;;4.01;82.73;97701.94;5041929;28;20045;-54
2022/01/09 02:29:29;;;;;;;26.58;6.60;;;;;;;4.01;82.49;97720.75;5041731;28;20032;-55
2022/01/09 02:32:03;;;;;;;25.83;5.82;;;;;;;4.01;82.35;97717.31;5058901;28;20040;-55
2022/01/09 02:34:33;;;;;;;25.88;6.45;;;;;;;4.03;82.21;97718.19;5076601;28;20060;-54
2022/01/09 02:36:59;;;;;;;30.55;6.72;;;;;;;4.02;82.30;97727.59;5042203;28;20049;-55
2022/01/09 02:39:24;;;;;;;20.95;6.45;;;;;;;4.04;82.82;97735.28;5058348;28;20391;-56
2022/01/09 02:41:55;;;;;;;26.63;7.20;;;;;;;4.04;82.95;97740.41;5058956;28;20090;-55
2022/01/09 02:44:27;;;;;;;27.63;6.45;;;;;;;4.02;82.64;97739.53;5076416;28;20506;-55
2022/01/09 02:47:03;;;;;;;26.55;6.60;;;;;;;4.05;82.32;97749.81;5076161;28;20552;-55
2022/01/09 02:49:31;;;;;;;25.52;6.63;;;;;;;4.04;81.93;97751.53;5041473;28;20388;-55
2022/01/09 02:51:58;;;;;;;20.67;6.93;;;;;;;4.04;82.77;97756.66;5075944;28;20036;-56
2022/01/09 02:57:10;;;;;;;;;;;;;;;4.05;82.45;97770.31;5076398;28;20032;-55
2022/01/09 02:59:38;;;;;;;26.13;6.50;;;;;;;4.03;82.67;97774.59;5074397;28;19912;-55
2022/01/09 03:02:06;;;;;;;18.20;5.28;;;;;;;4.02;82.59;97794.25;5075839;28;20051;-55
2022/01/09 03:04:35;;;;;;;25.80;6.53;;;;;;;4.04;82.69;97802.81;5040796;28;20040;-55
2022/01/09 03:07:03;;;;;;;24.83;6.30;;;;;;;4.03;82.72;97813.03;5057648;28;20036;-55
2022/01/09 03:09:28;;;;;;;20.40;6.60;;;;;;;4.01;82.48;97819.84;5075588;28;20032;-55
2022/01/09 03:11:54;;;;;;;16.75;4.82;;;;;;;4.00;82.47;97821.56;5075651;28;20044;-55
2022/01/09 03:14:19;;;;;;;23.83;6.47;;;;;;;4.00;83.16;97826.69;5058069;28;20115;-55
2022/01/09 03:16:50;;;;;;;20.27;5.55;;;;;;;4.01;82.75;97838.66;5057610;28;20040;-55
2022/01/09 03:19:15;;;;;;;21.35;5.20;;;;;;;4.04;82.79;97850.66;5057383;28;20032;-55
2022/01/09 03:21:43;;;;;;;22.10;4.97;;;;;;;4.02;82.50;97850.66;5058054;28;20086;-55
2022/01/09 03:24:12;;;;;;;26.95;7.03;;;;;;;4.04;82.30;97858.34;5057793;28;20038;-55
2022/01/09 03:26:37;;;;;;;19.23;5.43;;;;;;;4.02;82.75;97867.72;5075346;28;20040;-55
2022/01/09 03:29:03;;;;;;;20.00;5.65;;;;;;;4.04;82.30;97872.03;5075234;28;20483;-55
2022/01/09 03:31:28;;;;;;;25.00;6.13;;;;;;;4.03;82.75;97872.88;5075315;28;20086;-55
2022/01/09 03:33:54;;;;;;;17.17;4.78;;;;;;;4.02;82.46;97881.41;5075194;28;20044;-55
2022/01/09 03:36:19;;;;;;;24.63;5.85;;;;;;;4.03;82.41;97877.13;5074946;28;20045;-55
2022/01/09 03:38:47;;;;;;;22.95;6.80;;;;;;;4.05;82.31;97888.25;5056876;28;20028;-55
2022/01/09 03:41:24;;;;;;;20.55;6.65;;;;;;;4.04;82.12;97894.22;5074952;28;20041;-55
2022/01/09 03:43:52;;;;;;;22.00;5.15;;;;;;;4.04;82.06;97900.22;5074676;28;20036;-55
2022/01/09 03:46:26;;;;;;;17.13;7.00;;;;;;;4.03;82.59;97895.06;5040433;28;20051;-55
2022/01/09 03:48:57;;;;;;;18.00;6.00;;;;;;;4.05;82.29;97907.03;5041031;28;20029;-55
2022/01/09 03:51:32;;;;;;;20.10;5.75;;;;;;;4.06;82.72;97907.91;5040621;28;20113;-55
2022/01/09 03:54:00;;;;;;;21.30;6.13;;;;;;;4.05;82.15;97921.56;5074735;28;20033;-55
2022/01/09 03:56:26;;;;;;;22.60;5.55;;;;;;;4.07;82.72;97919.88;5074682;28;20458;-55
2022/01/09 03:58:54;;;;;;;18.60;5.57;;;;;;;4.04;82.48;97933.56;5074151;28;20056;-55
2022/01/09 04:01:22;;;;;;;23.27;5.88;;;;;;;4.05;82.36;97936.97;5074644;28;20040;-55
2022/01/09 04:03:51;;;;;;;20.08;6.05;;;;;;;4.04;82.60;97936.13;5074221;28;20068;-55
2022/01/09 04:06:19;;;;;;;21.60;6.80;;;;;;;4.04;82.71;97950.63;5056848;28;20037;-55
2022/01/09 04:08:45;;;;;;;26.20;5.88;;;;;;;4.04;82.32;97945.50;5039702;28;20119;-55
2022/01/09 04:11:18;;;;;;;14.40;4.55;;;;;;;4.03;82.39;97954.91;5073551;28;20128;-55
2022/01/09 04:13:50;;;;;;;26.17;6.03;;;;;;;4.04;82.59;97963.44;5039890;28;20483;-55
2022/01/09 04:16:21;;;;;;;23.90;6.32;;;;;;;4.02;82.97;97957.44;5039809;28;20090;-55
2022/01/09 04:18:50;;;;;;;15.05;5.63;;;;;;;4.02;82.19;97962.56;5074217;28;20071;-55
2022/01/09 04:21:18;;;;;;;30.95;5.40;;;;;;;4.02;82.20;97972.81;5073824;28;20503;-55
2022/01/09 04:23:46;;;;;;;27.33;6.28;;;;;;;4.00;82.27;97983.06;5056399;28;20074;-56
2022/01/09 04:26:12;;;;;;;22.23;5.30;;;;;;;4.00;82.20;98000.13;5073919;28;20033;-55
2022/01/09 04:28:46;;;;;;;14.13;5.30;;;;;;;4.02;82.25;97998.44;5056264;28;20387;-54
2022/01/09 04:31:15;;;;;;;21.73;6.15;;;;;;;4.04;82.11;98007.00;5040154;28;20035;-55
2022/01/09 04:33:42;;;;;;;18.80;5.13;;;;;;;4.03;82.68;98005.28;5074267;28;20028;-54
2022/01/09 04:36:09;;;;;;;17.30;4.90;;;;;;;4.03;82.20;98013.88;5039534;28;20086;-55
2022/01/09 04:38:38;;;;;;;21.83;5.13;;;;;;;4.03;82.85;98038.63;5073909;28;20544;-56
2022/01/09 04:41:09;;;;;;;21.85;5.47;;;;;;;4.01;82.09;98025.81;5039311;28;20028;-54
2022/01/09 04:43:43;;;;;;;21.90;6.30;;;;;;;4.01;82.48;98035.19;5040089;28;20036;-55
2022/01/09 04:46:10;;;;;;;16.17;4.97;;;;;;;4.03;82.18;98042.06;5074147;28;20036;-55
2022/01/09 04:48:38;;;;;;;15.27;5.30;;;;;;;4.03;82.66;98036.06;5055463;28;20043;-55
2022/01/09 04:51:13;;;;;;;17.90;5.70;;;;;;;4.01;81.97;98040.31;5073685;28;20169;-56
2022/01/09 04:53:41;;;;;;;18.38;4.90;;;;;;;4.00;82.13;98048.84;5039996;28;20119;-55
2022/01/09 04:56:07;;;;;;;18.90;5.15;;;;;;;4.01;82.22;98059.13;5055545;28;20040;-55
2022/01/09 04:58:41;;;;;;;19.83;5.70;;;;;;;4.01;82.15;98055.69;5073692;28;20555;-54
2022/01/09 05:01:17;;;;;;;17.73;5.30;;;;;;;4.01;82.38;98063.38;5055937;28;20041;-55
2022/01/09 05:03:45;;;;;;;20.15;5.10;;;;;;;3.97;82.34;98065.91;5055637;28;20044;-55
2022/01/09 05:06:16;;;;;;;14.32;4.82;;;;;;;3.98;82.12;98074.47;5073226;28;20430;-55
2022/01/09 05:08:41;;;;;;;17.40;4.20;;;;;;;3.99;82.31;98076.19;5073552;28;20537;-55
2022/01/09 05:11:12;;;;;;;16.75;5.28;;;;;;;3.98;81.75;98079.59;5073653;28;20040;-55
2022/01/09 05:13:40;;;;;;;22.48;6.07;;;;;;;3.96;81.94;98087.28;5055683;28;20048;-55
2022/01/09 05:16:11;;;;;;;16.10;5.55;;;;;;;3.97;82.68;98086.41;5073329;28;20036;-55
2022/01/09 05:18:52;;;;;;;15.45;4.60;;;;;;;3.98;82.25;98097.53;5038878;28;20089;-55
2022/01/09 05:21:18;;;;;;;15.02;4.35;;;;;;;3.96;81.82;98100.09;5055599;28;20040;-55
2022/01/09 05:23:46;;;;;;;19.10;5.50;;;;;;;3.95;82.63;98105.19;5054605;28;20037;-56
2022/01/09 05:26:17;;;;;;;12.45;4.57;;;;;;;3.95;82.41;98124.00;5055879;28;20033;-54
2022/01/09 05:28:48;;;;;;;15.75;4.35;;;;;;;3.97;81.89;98129.13;5073189;28;20440;-56
2022/01/09 05:31:19;;;;;;;10.63;3.45;;;;;;;3.95;82.05;98115.44;5039039;28;20072;-55
2022/01/09 05:33:50;;;;;;;14.80;4.55;;;;;;;3.95;82.41;98130.81;5039331;28;20040;-55
2022/01/09 05:36:19;;;;;;;9.05;3.88;;;;;;;3.95;81.80;98139.38;5039100;28;20093;-55
2022/01/09 05:38:49;;;;;;;18.77;4.93;;;;;;;3.95;81.65;98141.06;5055519;28;20392;-54
2022/01/09 05:41:19;;;;;;;14.52;3.80;;;;;;;3.92;82.31;98134.22;5054986;28;20047;-55
2022/01/09 05:43:53;;;;;;;8.98;3.47;;;;;;;3.89;82.45;98139.31;5073498;28;20047;-56
2022/01/09 05:46:27;;;;;;;11.43;3.80;;;;;;;3.91;82.41;98144.44;5055179;28;20037;-55
2022/01/09 05:48:55;;;;;;;7.35;3.45;;;;;;;3.89;82.09;98149.56;5073237;28;20487;-54
2022/01/09 05:51:26;;;;;;;6.97;3.33;;;;;;;3.88;82.36;98150.38;5073152;28;20132;-55
2022/01/09 05:54:00;;;;;;;16.08;4.78;;;;;;;3.88;82.44;98164.94;5055253;28;20041;-56
2022/01/09 05:56:29;;;;;;;14.68;3.70;;;;;;;3.88;82.09;98150.38;5038573;28;20131;-54
2022/01/09 05:59:03;;;;;;;12.85;3.80;;;;;;;3.89;82.26;98159.81;5073229;28;20032;-55
2022/01/09 06:01:35;;;;;;;16.10;5.22;;;;;;;3.89;82.01;98154.69;5038539;28;20522;-55
2022/01/09 06:04:01;;;;;;;15.20;5.25;;;;;;;3.90;81.94;98166.66;5035030;28;20053;-55
2022/01/09 06:06:31;;;;;;;15.48;5.50;;;;;;;3.89;82.17;98162.38;5052861;28;20032;-55
2022/01/09 06:09:00;;;;;;;14.15;4.53;;;;;;;3.89;82.44;98164.94;5052824;28;20102;-55
2022/01/09 06:11:34;;;;;;;13.32;4.93;;;;;;;3.88;82.33;98168.34;5034981;28;20037;-56
2022/01/09 06:14:07;;;;;;;22.33;6.32;;;;;;;3.91;82.42;98177.75;5035389;28;20150;-55
2022/01/09 06:16:38;;;;;;;13.90;4.63;;;;;;;3.89;82.66;98175.19;5051438;28;20063;-55
2022/01/09 06:19:07;;;;;;;19.65;7.40;;;;;;;3.89;82.01;98164.94;5052642;28;20157;-55
2022/01/09 06:21:38;;;;;;;10.70;4.75;;;;;;;3.89;82.34;98174.34;5035231;28;20159;-55
2022/01/09 06:24:07;;;;;;;13.75;4.72;;;;;;;3.89;82.64;98182.88;5035187;28;20041;-55
2022/01/09 06:26:38;;;;;;;11.60;4.72;;;;;;;3.88;81.85;98191.41;5051490;28;20429;-55
2022/01/09 06:29:13;;;;;;;12.32;5.20;;;;;;;3.89;81.88;98194.84;5051681;28;20055;-55
2022/01/09 06:31:42;;;;;;;11.43;4.72;;;;;;;3.87;82.21;98199.94;5034649;28;20408;-55
2022/01/09 06:34:13;;;;;;;10.95;4.60;;;;;;;3.88;82.40;98193.13;5054041;28;20040;-55
2022/01/09 06:36:47;;;;;;;18.10;5.60;;;;;;;3.89;81.93;98192.28;5038377;28;20040;-55
2022/01/09 06:39:16;;;;;;;20.15;5.70;;;;;;;3.89;82.38;98195.69;5038778;28;20037;-55
2022/01/09 06:41:49;;;;;;;17.23;6.40;;;;;;;3.88;82.59;98198.25;5054603;28;20041;-55
2022/01/09 06:44:19;;;;;;;11.40;4.70;;;;;;;3.87;81.87;98202.50;5055007;28;20075;-55
2022/01/09 06:46:50;;;;;;;23.23;5.72;;;;;;;3.87;82.27;98211.91;5038478;28;20037;-55
2022/01/09 06:49:21;;;;;;;14.35;4.03;;;;;;;3.87;81.87;98225.56;5054964;28;20047;-55
2022/01/09 06:51:52;;;;;;;16.17;4.97;;;;;;;3.86;82.42;98228.97;5038256;28;20033;-55
2022/01/09 06:54:20;;;;;;;19.98;5.03;;;;;;;3.86;82.05;98239.22;5038250;28;20036;-55
2022/01/09 06:56:54;;;;;;;16.23;5.18;;;;;;;3.83;81.85;98236.59;5038401;28;20064;-55
2022/01/09 06:59:19;;;;;;;15.43;4.68;;;;;;;3.86;82.16;98258.88;5038485;28;20032;-55
2022/01/09 07:01:50;;;;;;;17.13;5.60;;;;;;;3.84;82.31;98246.00;5055791;28;20107;-54
2022/01/09 07:04:18;;;;;;;19.50;6.05;;;;;;;3.84;81.81;98253.69;5054730;28;20048;-55
2022/01/09 07:06:50;;;;;;;12.18;4.93;;;;;;;3.84;81.68;98258.81;5055539;28;20041;-54
2022/01/09 07:09:23;;;;;;;20.50;5.55;;;;;;;3.86;81.94;98266.56;5054411;28;20037;-55
2022/01/09 07:11:51;;;;;;;16.05;5.10;;;;;;;3.86;82.65;98271.69;5055943;28;20072;-56
2022/01/09 07:14:22;;;;;;;13.85;4.07;;;;;;;3.84;82.16;98271.63;5037604;28;20048;-54
2022/01/09 07:16:47;;;;;;;16.02;5.13;;;;;;;3.85;81.97;98278.50;5053996;28;20472;-55
2022/01/09 07:19:18;;;;;;;17.85;4.75;;;;;;;3.85;81.83;98278.50;5055340;28;20120;-55
2022/01/09 07:21:51;;;;;;;16.13;5.30;;;;;;;3.85;82.51;98285.34;5055412;28;20044;-55
2022/01/09 07:24:19;;;;;;;14.73;4.95;;;;;;;3.85;82.10;98283.63;5038253;28;20029;-55
2022/01/09 07:26:50;;;;;;;20.90;5.57;;;;;;;3.86;82.16;98289.63;5037694;28;20045;-55
2022/01/09 07:29:18;;;;;;;13.52;4.55;;;;;;;3.85;82.19;98293.88;5037544;28;20131;-55
2022/01/09 07:31:51;;;;;;;20.48;5.90;;;;;;;3.86;81.88;98305.00;5037556;28;20041;-54
2022/01/09 07:34:20;;;;;;;17.50;5.97;;;;;;;3.84;82.10;98301.53;5054690;28;20442;-55
2022/01/09 07:36:51;;;;;;;13.75;4.32;;;;;;;3.86;82.05;98300.72;5054013;28;20036;-55
2022/01/09 07:39:22;;;;;;;15.13;4.05;;;;;;;3.85;81.67;98298.16;5055551;28;20033;-55
2022/01/09 07:41:51;;;;;;;19.17;5.38;;;;;;;3.85;81.71;98313.53;5037652;28;20037;-54
2022/01/09 07:44:25;;;;;;;17.10;5.93;;;;;;;3.85;82.34;98319.50;5055062;28;20033;-55
2022/01/09 07:46:57;;;;;;;11.60;4.10;;;;;;;3.86;82.08;98325.50;5052759;28;20041;-55
2022/01/09 07:49:33;;;;;;;11.82;5.53;;;;;;;3.86;81.87;98330.63;5037440;28;20041;-55
2022/01/09 07:52:04;;;;;;;16.38;5.53;;;;;;;3.85;81.59;98327.19;5055432;28;20047;-55
2022/01/09 07:54:33;;;;;;;15.18;4.97;;;;;;;3.87;82.36;98338.34;5037190;28;20033;-55
2022/01/09 07:57:04;;;;;;;16.58;4.68;;;;;;;3.85;81.69;98342.56;5054802;28;20111;-55
2022/01/09 07:59:35;;;;;;;14.38;4.90;;;;;;;3.85;81.63;98344.28;5036926;28;20037;-55
2022/01/09 08:02:05;;;;;;;10.38;4.90;;;;;;;3.85;82.30;98347.69;5037415;28;20431;-55
2022/01/09 08:04:38;;;;;;;14.68;5.32;;;;;;;3.85;81.97;98355.38;5072562;28;20058;-55
2022/01/09 08:07:07;;;;;;;10.18;4.28;;;;;;;3.86;82.11;98354.53;5056773;28;20138;-55
2022/01/09 08:09:44;;;;;;;9.77;4.18;;;;;;;3.85;82.51;98369.91;5056735;28;20071;-55
2022/01/09 08:12:15;;;;;;;11.43;4.38;;;;;;;3.85;82.41;98373.31;5074741;28;20036;-55
2022/01/09 08:14:44;;;;;;;11.88;5.70;;;;;;;3.85;82.04;98363.06;5074717;28;20033;-55
2022/01/09 08:17:15;;;;;;;12.20;4.43;;;;;;;3.84;82.45;98365.63;5039770;28;20191;-55
2022/01/09 08:19:46;;;;;;;12.05;4.40;;;;;;;3.85;82.27;98363.06;5040062;28;20032;-54
2022/01/09 08:22:17;;;;;;;11.40;4.35;;;;;;;3.85;82.44;98369.91;5039583;28;20032;-54
2022/01/09 08:24:48;;;;;;;20.00;4.53;;;;;;;3.85;82.07;98375.88;5039674;28;20039;-55
2022/01/09 08:27:13;;;;;;;15.30;4.57;;;;;;;3.84;82.13;98373.31;5073906;28;20041;-54
2022/01/09 08:29:44;;;;;;;13.18;4.68;;;;;;;3.86;82.16;98381.88;5074134;28;20372;-55
2022/01/09 08:32:15;;;;;;;14.20;4.85;;;;;;;3.87;82.15;98388.75;5039073;28;20098;-55
2022/01/09 08:34:45;;;;;;;12.98;4.43;;;;;;;3.85;81.76;98391.25;5074083;28;20025;-55
2022/01/09 08:37:20;;;;;;;15.43;4.45;;;;;;;3.87;81.96;98396.44;5073884;28;20040;-54
2022/01/09 08:39:46;;;;;;;14.43;4.18;;;;;;;3.86;82.20;98384.44;5074011;28;20032;-55
2022/01/09 08:42:17;;;;;;;13.98;4.95;;;;;;;3.86;81.94;98402.41;5073680;28;20033;-55
2022/01/09 08:44:50;;;;;;;14.68;4.75;;;;;;;3.84;81.80;98396.38;5056429;28;20040;-55
2022/01/09 08:47:22;;;;;;;11.25;5.32;;;;;;;3.85;81.95;98395.53;5038996;28;20518;-55
2022/01/09 08:49:50;;;;;;;14.85;4.50;;;;;;;3.85;81.88;98405.78;5073368;28;20032;-55
2022/01/09 08:52:24;;;;;;;16.02;5.78;;;;;;;3.85;81.59;98406.63;5073706;28;20037;-55
2022/01/09 08:54:55;;;;;;;12.52;4.80;;;;;;;3.84;82.49;98406.63;5073960;28;20113;-55
2022/01/09 08:57:28;;;;;;;14.65;4.75;;;;;;;3.85;82.18;98408.34;5073740;28;20033;-55
2022/01/09 09:00:02;;;;;;;12.25;4.45;;;;;;;3.85;82.08;98419.47;5039116;28;20039;-55
2022/01/09 09:02:30;;;;;;;24.80;4.63;;;;;;;3.83;82.05;98415.16;5039764;28;20040;-55
2022/01/09 09:04:56;;;;;;;13.85;4.35;;;;;;;3.84;81.90;98417.72;5055759;28;20131;-55
2022/01/09 09:07:24;;;;;;;15.15;4.05;;;;;;;3.85;82.00;98416.03;5073671;28;20124;-55
2022/01/09 09:09:55;;;;;;;14.50;4.03;;;;;;;3.84;81.86;98412.59;5055439;28;20039;-55
2022/01/09 09:12:27;;;;;;;11.23;4.35;;;;;;;3.84;82.10;98412.59;5073553;28;20029;-55
2022/01/09 09:14:55;;;;;;;15.50;5.10;;;;;;;3.87;81.85;98425.47;5056209;28;20037;-54
2022/01/09 09:17:23;;;;;;;13.75;5.03;;;;;;;3.87;82.14;98429.75;5073951;28;20472;-54
2022/01/09 09:19:52;;;;;;;17.77;5.32;;;;;;;3.86;82.12;98431.44;5055630;28;20029;-55
2022/01/09 09:22:23;;;;;;;16.10;3.85;;;;;;;3.86;82.32;98428.88;5073300;28;20044;-55
2022/01/09 09:24:49;;;;;;;13.20;4.85;;;;;;;3.87;81.56;98430.59;5073469;28;20033;-55
2022/01/09 09:27:19;;;;;;;15.57;4.85;;;;;;;3.88;81.81;98439.16;5073111;28;20043;-54
2022/01/09 09:29:48;;;;;;;15.15;3.65;;;;;;;3.86;81.75;98440.84;5055840;28;20040;-55
2022/01/09 09:32:19;;;;;;;11.82;3.78;;;;;;;3.84;82.33;98450.19;5073509;28;20055;-55
2022/01/09 09:34:49;;;;;;;13.18;4.18;;;;;;;3.85;81.96;98446.81;5073530;28;20099;-55
2022/01/09 09:37:15;;;;;;;14.05;3.90;;;;;;;3.86;82.09;98469.88;5073363;28;20055;-54
2022/01/09 09:39:40;;;;;;;21.02;4.80;;;;;;;3.84;81.74;98465.56;5054839;28;20408;-55
2022/01/09 09:42:09;;;;;;;16.33;3.95;;;;;;;3.86;81.54;98477.56;5072899;28;20098;-55
2022/01/09 09:44:42;;;;;;;16.17;4.85;;;;;;;3.84;82.14;98468.13;5073488;28;20037;-55
2022/01/09 09:47:17;;;;;;;22.47;5.27;;;;;;;3.83;82.11;98474.94;5055088;28;20040;-55
2022/01/09 09:49:50;;;;;;;10.10;4.35;;;;;;;3.84;82.10;98478.41;5055529;28;20067;-55
2022/01/09 09:52:19;;;;;;;18.05;5.03;;;;;;;3.83;81.93;98479.22;5072922;28;20140;-55
2022/01/09 09:54:51;;;;;;;10.32;4.45;;;;;;;3.84;81.75;98469.00;5072890;28;20028;-55
2022/01/09 09:57:27;;;;;;;15.98;4.63;;;;;;;3.85;81.96;98478.41;5055450;28;20086;-55
2022/01/09 10:00:28;;;;;;;18.75;6.07;;;;;;;3.84;82.01;98481.81;5038745;28;20036;-55
2022/01/09 10:02:59;;;;;;;23.08;5.95;;;;;;;3.84;82.08;98486.94;5072745;28;20044;-55
2022/01/09 10:05:32;;;;;;;16.60;4.40;;;;;;;3.85;81.78;98488.66;5039288;28;20119;-55
2022/01/09 10:08:10;;;;;;;11.35;4.25;;;;;;;3.84;81.81;98497.19;5038278;28;20442;-55
2022/01/09 10:10:39;;;;;;;11.82;4.18;;;;;;;3.86;81.70;98499.78;5076643;28;20041;-55
2022/01/09 10:13:13;;;;;;;16.30;4.88;;;;;;;3.86;81.58;98498.06;5041861;28;20491;-55
2022/01/09 10:15:59;;;;;;;14.88;4.65;;;;;;;3.87;82.38;98493.84;5058556;28;20036;-55
2022/01/09 10:18:48;;;;;;;13.60;5.22;;;;;;;3.87;82.10;98510.06;5042517;28;20068;-55
2022/01/09 10:21:19;;;;;;;13.50;4.25;;;;;;;3.89;81.48;98515.22;5076716;28;20037;-55
2022/01/09 10:24:08;;;;;;;12.25;4.68;;;;;;;3.88;81.53;98509.22;5041944;28;20028;-55
2022/01/09 10:26:39;;;;;;;21.00;4.78;;;;;;;3.87;81.78;98512.63;5042321;28;20162;-54
2022/01/09 10:29:08;;;;;;;16.23;4.57;;;;;;;3.89;81.97;98517.78;5042221;28;20086;-54
2022/01/09 10:31:45;;;;;;;17.40;5.57;;;;;;;3.90;82.15;98516.94;5076368;28;20040;-54
2022/01/09 10:34:16;;;;;;;14.75;5.55;;;;;;;3.89;81.56;98523.78;5041604;28;20111;-55
2022/01/09 10:36:48;;;;;;;17.20;5.55;;;;;;;3.91;82.23;98519.53;5076790;28;20060;-55
2022/01/09 10:39:32;;;;;;;15.20;4.65;;;;;;;3.91;82.03;98523.78;5076239;28;20526;-55
2022/01/09 10:42:00;;;;;;;15.75;4.47;;;;;;;3.90;81.82;98522.06;5058645;28;20040;-55
2022/01/09 10:44:35;;;;;;;15.85;4.88;;;;;;;3.89;82.12;98521.22;5041489;28;20047;-54
2022/01/09 10:47:14;;;;;;;16.63;5.20;;;;;;;3.90;82.15;98530.63;5076683;28;20110;-55
2022/01/09 10:49:48;;;;;;;14.73;5.15;;;;;;;3.90;81.75;98534.88;5076174;28;20484;-55
2022/01/09 10:52:26;;;;;;;12.68;4.63;;;;;;;3.91;82.25;98545.19;5076152;28;20032;-55
2022/01/09 10:54:56;;;;;;;15.35;4.32;;;;;;;3.92;82.27;98539.22;5041512;28;20127;-56
2022/01/09 10:57:28;;;;;;;12.48;3.92;;;;;;;3.92;82.37;98552.03;5058365;28;20430;-55
2022/01/09 11:00:13;;;;;;;24.92;6.13;;;;;;;3.92;82.39;98540.91;5041725;28;20060;-55
2022/01/09 11:02:39;;;;;;;18.70;6.22;;;;;;;3.92;81.86;98551.16;5041294;28;20115;-55
2022/01/09 11:05:08;;;;;;;16.55;4.63;;;;;;;3.90;82.19;98556.25;5075636;28;20455;-54
2022/01/09 11:07:35;;;;;;;10.10;4.68;;;;;;;3.94;81.66;98557.19;5040750;28;20093;-54
2022/01/09 11:10:09;;;;;;;14.13;4.38;;;;;;;3.91;81.72;98555.44;5041174;28;20060;-55
2022/01/09 11:12:46;;;;;;;;;;;;;;;3.90;81.61;98563.94;5076119;28;20032;-55
2022/01/09 11:15:21;;;;;;;20.00;4.03;;;;;;;3.90;81.82;98556.25;5074682;28;19912;-55
2022/01/09 11:17:55;;;;;;;15.25;4.68;;;;;;;3.90;82.27;98557.94;5040944;28;20041;-56
2022/01/09 11:20:23;;;;;;;12.50;5.10;;;;;;;3.91;81.80;98564.81;5074901;28;20078;-55
2022/01/09 11:22:55;;;;;;;17.45;6.45;;;;;;;3.93;81.78;98564.00;5057623;28;20089;-54
2022/01/09 11:25:23;;;;;;;10.07;4.43;;;;;;;3.93;82.10;98556.31;5041438;28;20036;-55
2022/01/09 11:28:12;;;;;;;16.33;4.80;;;;;;;3.93;81.58;98552.88;5075081;28;20033;-55
2022/01/09 11:30:48;;;;;;;14.82;4.15;;;;;;;3.91;81.66;98555.44;5040278;28;20097;-55
2022/01/09 11:33:51;;;;;;;20.70;4.88;;;;;;;3.92;81.62;98563.97;5057553;28;20474;-54
2022/01/09 11:36:23;;;;;;;16.25;5.10;;;;;;;3.95;81.72;98569.16;5057287;28;20025;-55
2022/01/09 11:39:11;;;;;;;16.10;5.45;;;;;;;3.97;82.18;98575.19;5075406;28;20036;-55
2022/01/09 11:41:41;;;;;;;14.02;4.40;;;;;;;3.99;82.04;98572.63;5040376;28;20037;-55
2022/01/09 11:44:09;;;;;;;19.75;5.25;;;;;;;3.99;81.74;98570.94;5040826;28;20039;-56
2022/01/09 11:47:02;;;;;;;21.05;4.65;;;;;;;4.01;81.82;98581.22;5040495;28;20503;-55
2022/01/09 11:49:39;;;;;;;15.27;6.10;;;;;;;4.00;82.38;98582.06;5074833;28;20032;-54
2022/01/09 11:52:08;;;;;;;17.40;6.70;;;;;;;4.02;81.92;98575.25;5040811;28;20127;-55
2022/01/09 11:54:48;;;;;;;15.45;4.28;;;;;;;4.03;81.94;98587.25;5040199;28;20040;-55